sensor_id;sensor_type;location;lat;lon;timestamp;P1;durP1;ratioP1;P2;durP2;ratioP2
44169;SDS011;29836;52.286;9.576;2023-08-08T00:01:29;4.25;;;2.10;;
44169;SDS011;29836;52.286;9.576;2023-08-08T00:03:54;5.75;;;2.25;;
44169;SDS011;29836;52.286;9.576;2023-08-08T00:06:20;4.38;;;1.88;;
44169;SDS011;29836;52.286;9.576;2023-08-08T00:08:45;3.78;;;1.98;;
44169;SDS011;29836;52.286;9.576;2023-08-08T00:11:11;4.80;;;2.20;;
44169;SDS011;29836;52.286;9.576;2023-08-08T00:13:36;6.97;;;2.20;;
44169;SDS011;29836;52.286;9.576;2023-08-08T00:16:02;4.13;;;1.88;;
44169;SDS011;29836;52.286;9.576;2023-08-08T00:18:28;4.72;;;2.15;;
44169;SDS011;29836;52.286;9.576;2023-08-08T00:20:54;6.22;;;2.10;;
44169;SDS011;29836;52.286;9.576;2023-08-08T00:23:19;5.95;;;2.13;;
44169;SDS011;29836;52.286;9.576;2023-08-08T00:25:45;4.50;;;1.80;;
44169;SDS011;29836;52.286;9.576;2023-08-08T00:28:14;5.63;;;1.90;;
44169;SDS011;29836;52.286;9.576;2023-08-08T00:30:41;5.80;;;2.00;;
44169;SDS011;29836;52.286;9.576;2023-08-08T00:33:07;9.40;;;1.90;;
44169;SDS011;29836;52.286;9.576;2023-08-08T00:35:32;3.95;;;1.77;;
44169;SDS011;29836;52.286;9.576;2023-08-08T00:37:58;4.68;;;1.90;;
44169;SDS011;29836;52.286;9.576;2023-08-08T00:40:23;4.03;;;2.00;;
44169;SDS011;29836;52.286;9.576;2023-08-08T00:42:49;3.97;;;1.67;;
44169;SDS011;29836;52.286;9.576;2023-08-08T00:45:14;4.88;;;2.20;;
44169;SDS011;29836;52.286;9.576;2023-08-08T00:47:40;4.22;;;1.88;;
44169;SDS011;29836;52.286;9.576;2023-08-08T00:50:06;4.75;;;1.80;;
44169;SDS011;29836;52.286;9.576;2023-08-08T00:52:33;3.58;;;1.80;;
44169;SDS011;29836;52.286;9.576;2023-08-08T00:54:59;6.40;;;2.13;;
44169;SDS011;29836;52.286;9.576;2023-08-08T00:57:26;6.88;;;1.98;;
44169;SDS011;29836;52.286;9.576;2023-08-08T00:59:52;4.03;;;1.80;;
44169;SDS011;29836;52.286;9.576;2023-08-08T01:02:18;5.82;;;2.10;;
44169;SDS011;29836;52.286;9.576;2023-08-08T01:04:43;4.95;;;2.08;;
44169;SDS011;29836;52.286;9.576;2023-08-08T01:07:12;3.80;;;1.90;;
44169;SDS011;29836;52.286;9.576;2023-08-08T01:09:57;5.22;;;2.10;;
44169;SDS011;29836;52.286;9.576;2023-08-08T01:12:32;5.35;;;2.05;;
44169;SDS011;29836;52.286;9.576;2023-08-08T01:14:58;4.50;;;2.10;;
44169;SDS011;29836;52.286;9.576;2023-08-08T01:17:24;3.10;;;1.77;;
44169;SDS011;29836;52.286;9.576;2023-08-08T01:19:50;3.75;;;1.65;;
44169;SDS011;29836;52.286;9.576;2023-08-08T01:22:23;4.95;;;1.90;;
44169;SDS011;29836;52.286;9.576;2023-08-08T01:27:18;5.25;;;1.70;;
44169;SDS011;29836;52.286;9.576;2023-08-08T01:29:44;3.85;;;2.10;;
44169;SDS011;29836;52.286;9.576;2023-08-08T01:32:10;5.32;;;2.17;;
44169;SDS011;29836;52.286;9.576;2023-08-08T01:34:36;4.25;;;1.90;;
44169;SDS011;29836;52.286;9.576;2023-08-08T01:39:32;3.58;;;1.77;;
44169;SDS011;29836;52.286;9.576;2023-08-08T01:41:58;3.70;;;2.08;;
44169;SDS011;29836;52.286;9.576;2023-08-08T01:44:25;3.08;;;2.05;;
44169;SDS011;29836;52.286;9.576;2023-08-08T01:46:53;5.68;;;2.40;;
44169;SDS011;29836;52.286;9.576;2023-08-08T01:49:19;4.00;;;2.30;;
44169;SDS011;29836;52.286;9.576;2023-08-08T01:51:45;5.63;;;2.33;;
44169;SDS011;29836;52.286;9.576;2023-08-08T01:54:11;6.57;;;2.70;;
44169;SDS011;29836;52.286;9.576;2023-08-08T01:56:37;4.82;;;2.10;;
44169;SDS011;29836;52.286;9.576;2023-08-08T01:59:02;5.32;;;2.50;;
44169;SDS011;29836;52.286;9.576;2023-08-08T02:01:28;5.60;;;2.30;;
44169;SDS011;29836;52.286;9.576;2023-08-08T02:03:53;6.20;;;2.30;;
44169;SDS011;29836;52.286;9.576;2023-08-08T02:06:19;6.70;;;2.50;;
44169;SDS011;29836;52.286;9.576;2023-08-08T02:08:45;4.32;;;2.47;;
44169;SDS011;29836;52.286;9.576;2023-08-08T02:11:11;6.95;;;2.63;;
44169;SDS011;29836;52.286;9.576;2023-08-08T02:13:36;7.07;;;2.85;;
44169;SDS011;29836;52.286;9.576;2023-08-08T02:16:02;11.35;;;2.85;;
44169;SDS011;29836;52.286;9.576;2023-08-08T02:18:27;6.40;;;3.05;;
44169;SDS011;29836;52.286;9.576;2023-08-08T02:20:53;6.40;;;2.90;;
44169;SDS011;29836;52.286;9.576;2023-08-08T02:23:18;6.93;;;2.88;;
44169;SDS011;29836;52.286;9.576;2023-08-08T02:25:44;4.38;;;2.70;;
44169;SDS011;29836;52.286;9.576;2023-08-08T02:28:09;7.38;;;3.28;;
44169;SDS011;29836;52.286;9.576;2023-08-08T02:30:35;7.00;;;3.42;;
44169;SDS011;29836;52.286;9.576;2023-08-08T02:33:01;5.60;;;2.83;;
44169;SDS011;29836;52.286;9.576;2023-08-08T02:35:26;7.45;;;3.38;;
44169;SDS011;29836;52.286;9.576;2023-08-08T02:37:52;5.65;;;3.08;;
44169;SDS011;29836;52.286;9.576;2023-08-08T02:40:17;5.32;;;3.05;;
44169;SDS011;29836;52.286;9.576;2023-08-08T02:42:43;6.68;;;2.53;;
44169;SDS011;29836;52.286;9.576;2023-08-08T02:45:08;7.05;;;2.58;;
44169;SDS011;29836;52.286;9.576;2023-08-08T02:47:34;5.13;;;2.88;;
44169;SDS011;29836;52.286;9.576;2023-08-08T02:50:00;6.00;;;2.90;;
44169;SDS011;29836;52.286;9.576;2023-08-08T02:52:25;5.47;;;3.00;;
44169;SDS011;29836;52.286;9.576;2023-08-08T02:54:51;4.88;;;2.67;;
44169;SDS011;29836;52.286;9.576;2023-08-08T02:57:16;6.07;;;2.72;;
44169;SDS011;29836;52.286;9.576;2023-08-08T02:59:42;6.90;;;2.60;;
44169;SDS011;29836;52.286;9.576;2023-08-08T03:02:07;5.68;;;2.60;;
44169;SDS011;29836;52.286;9.576;2023-08-08T03:04:33;6.00;;;2.78;;
44169;SDS011;29836;52.286;9.576;2023-08-08T03:06:59;7.18;;;3.03;;
44169;SDS011;29836;52.286;9.576;2023-08-08T03:09:27;7.75;;;2.67;;
44169;SDS011;29836;52.286;9.576;2023-08-08T03:11:53;6.32;;;3.03;;
44169;SDS011;29836;52.286;9.576;2023-08-08T03:14:19;4.70;;;2.40;;
44169;SDS011;29836;52.286;9.576;2023-08-08T03:16:44;8.35;;;2.72;;
44169;SDS011;29836;52.286;9.576;2023-08-08T03:19:10;5.03;;;2.63;;
44169;SDS011;29836;52.286;9.576;2023-08-08T03:21:35;8.60;;;2.90;;
44169;SDS011;29836;52.286;9.576;2023-08-08T03:24:01;7.53;;;2.90;;
44169;SDS011;29836;52.286;9.576;2023-08-08T03:26:26;6.35;;;2.22;;
44169;SDS011;29836;52.286;9.576;2023-08-08T03:28:52;5.05;;;2.88;;
44169;SDS011;29836;52.286;9.576;2023-08-08T03:31:18;9.90;;;2.83;;
44169;SDS011;29836;52.286;9.576;2023-08-08T03:33:44;5.10;;;2.72;;
44169;SDS011;29836;52.286;9.576;2023-08-08T03:36:10;5.40;;;2.60;;
44169;SDS011;29836;52.286;9.576;2023-08-08T03:38:36;5.32;;;3.00;;
44169;SDS011;29836;52.286;9.576;2023-08-08T03:41:03;5.97;;;2.30;;
44169;SDS011;29836;52.286;9.576;2023-08-08T03:43:28;4.45;;;2.22;;
44169;SDS011;29836;52.286;9.576;2023-08-08T03:45:54;4.72;;;2.60;;
44169;SDS011;29836;52.286;9.576;2023-08-08T03:48:20;6.95;;;2.45;;
44169;SDS011;29836;52.286;9.576;2023-08-08T03:50:45;4.10;;;2.40;;
44169;SDS011;29836;52.286;9.576;2023-08-08T03:53:11;4.18;;;2.28;;
44169;SDS011;29836;52.286;9.576;2023-08-08T03:55:37;6.45;;;2.75;;
44169;SDS011;29836;52.286;9.576;2023-08-08T03:58:08;6.93;;;2.60;;
44169;SDS011;29836;52.286;9.576;2023-08-08T04:04:23;5.47;;;2.60;;
44169;SDS011;29836;52.286;9.576;2023-08-08T04:06:49;5.32;;;2.40;;
44169;SDS011;29836;52.286;9.576;2023-08-08T04:09:14;4.63;;;2.50;;
44169;SDS011;29836;52.286;9.576;2023-08-08T04:11:40;5.38;;;2.28;;
44169;SDS011;29836;52.286;9.576;2023-08-08T04:14:05;5.72;;;2.38;;
44169;SDS011;29836;52.286;9.576;2023-08-08T04:16:31;3.72;;;2.30;;
44169;SDS011;29836;52.286;9.576;2023-08-08T04:18:57;4.95;;;2.58;;
44169;SDS011;29836;52.286;9.576;2023-08-08T04:21:24;4.78;;;2.30;;
44169;SDS011;29836;52.286;9.576;2023-08-08T04:23:51;5.05;;;2.65;;
44169;SDS011;29836;52.286;9.576;2023-08-08T04:26:16;4.90;;;2.60;;
44169;SDS011;29836;52.286;9.576;2023-08-08T04:28:42;6.85;;;2.38;;
44169;SDS011;29836;52.286;9.576;2023-08-08T04:31:07;6.05;;;2.83;;
44169;SDS011;29836;52.286;9.576;2023-08-08T04:33:33;6.22;;;3.10;;
44169;SDS011;29836;52.286;9.576;2023-08-08T04:35:58;6.63;;;2.70;;
44169;SDS011;29836;52.286;9.576;2023-08-08T04:38:24;7.43;;;2.80;;
44169;SDS011;29836;52.286;9.576;2023-08-08T04:40:50;6.10;;;2.88;;
44169;SDS011;29836;52.286;9.576;2023-08-08T04:43:15;7.93;;;3.00;;
44169;SDS011;29836;52.286;9.576;2023-08-08T04:45:41;7.22;;;3.10;;
44169;SDS011;29836;52.286;9.576;2023-08-08T04:48:06;6.15;;;2.65;;
44169;SDS011;29836;52.286;9.576;2023-08-08T04:50:32;5.00;;;2.28;;
44169;SDS011;29836;52.286;9.576;2023-08-08T04:52:58;4.47;;;2.70;;
44169;SDS011;29836;52.286;9.576;2023-08-08T04:55:23;6.40;;;2.83;;
44169;SDS011;29836;52.286;9.576;2023-08-08T04:57:49;4.68;;;2.85;;
44169;SDS011;29836;52.286;9.576;2023-08-08T05:00:14;8.77;;;2.67;;
44169;SDS011;29836;52.286;9.576;2023-08-08T05:02:40;7.22;;;3.05;;
44169;SDS011;29836;52.286;9.576;2023-08-08T05:05:06;5.50;;;2.75;;
44169;SDS011;29836;52.286;9.576;2023-08-08T05:07:32;6.45;;;3.08;;
44169;SDS011;29836;52.286;9.576;2023-08-08T05:09:57;6.60;;;3.17;;
44169;SDS011;29836;52.286;9.576;2023-08-08T05:12:23;5.28;;;2.97;;
44169;SDS011;29836;52.286;9.576;2023-08-08T05:14:49;5.95;;;3.17;;
44169;SDS011;29836;52.286;9.576;2023-08-08T05:17:14;7.95;;;3.15;;
44169;SDS011;29836;52.286;9.576;2023-08-08T05:19:40;5.40;;;2.50;;
44169;SDS011;29836;52.286;9.576;2023-08-08T05:22:05;8.85;;;2.90;;
44169;SDS011;29836;52.286;9.576;2023-08-08T05:24:31;7.32;;;3.20;;
44169;SDS011;29836;52.286;9.576;2023-08-08T05:26:56;8.75;;;3.13;;
44169;SDS011;29836;52.286;9.576;2023-08-08T05:29:22;5.95;;;2.90;;
44169;SDS011;29836;52.286;9.576;2023-08-08T05:31:47;8.57;;;2.88;;
44169;SDS011;29836;52.286;9.576;2023-08-08T05:34:14;4.60;;;2.70;;
44169;SDS011;29836;52.286;9.576;2023-08-08T05:36:39;5.68;;;3.05;;
44169;SDS011;29836;52.286;9.576;2023-08-08T05:39:05;6.63;;;2.95;;
44169;SDS011;29836;52.286;9.576;2023-08-08T05:41:31;6.05;;;3.10;;
44169;SDS011;29836;52.286;9.576;2023-08-08T05:43:57;7.82;;;2.70;;
44169;SDS011;29836;52.286;9.576;2023-08-08T05:46:23;4.85;;;3.05;;
44169;SDS011;29836;52.286;9.576;2023-08-08T05:48:49;5.28;;;3.10;;
44169;SDS011;29836;52.286;9.576;2023-08-08T05:51:14;5.50;;;2.97;;
44169;SDS011;29836;52.286;9.576;2023-08-08T05:53:40;9.23;;;3.33;;
44169;SDS011;29836;52.286;9.576;2023-08-08T05:56:05;5.90;;;3.08;;
44169;SDS011;29836;52.286;9.576;2023-08-08T05:58:31;5.82;;;3.00;;
44169;SDS011;29836;52.286;9.576;2023-08-08T06:00:56;5.78;;;3.08;;
44169;SDS011;29836;52.286;9.576;2023-08-08T06:03:22;9.00;;;3.00;;
44169;SDS011;29836;52.286;9.576;2023-08-08T06:05:47;6.20;;;3.08;;
44169;SDS011;29836;52.286;9.576;2023-08-08T06:08:13;6.45;;;3.30;;
44169;SDS011;29836;52.286;9.576;2023-08-08T06:10:41;6.22;;;3.13;;
44169;SDS011;29836;52.286;9.576;2023-08-08T06:13:07;6.03;;;3.47;;
44169;SDS011;29836;52.286;9.576;2023-08-08T06:15:32;7.60;;;3.50;;
44169;SDS011;29836;52.286;9.576;2023-08-08T06:17:58;6.43;;;3.63;;
44169;SDS011;29836;52.286;9.576;2023-08-08T06:20:24;6.47;;;3.72;;
44169;SDS011;29836;52.286;9.576;2023-08-08T06:22:49;7.93;;;4.03;;
44169;SDS011;29836;52.286;9.576;2023-08-08T06:25:15;7.60;;;4.00;;
44169;SDS011;29836;52.286;9.576;2023-08-08T06:27:40;8.75;;;4.35;;
44169;SDS011;29836;52.286;9.576;2023-08-08T06:30:06;6.43;;;3.97;;
44169;SDS011;29836;52.286;9.576;2023-08-08T06:32:33;7.80;;;4.18;;
44169;SDS011;29836;52.286;9.576;2023-08-08T06:34:59;7.20;;;3.45;;
44169;SDS011;29836;52.286;9.576;2023-08-08T06:37:24;5.30;;;3.65;;
44169;SDS011;29836;52.286;9.576;2023-08-08T06:39:50;6.57;;;3.60;;
44169;SDS011;29836;52.286;9.576;2023-08-08T06:42:15;7.45;;;3.75;;
44169;SDS011;29836;52.286;9.576;2023-08-08T06:44:42;6.30;;;3.50;;
44169;SDS011;29836;52.286;9.576;2023-08-08T06:47:08;5.03;;;3.20;;
44169;SDS011;29836;52.286;9.576;2023-08-08T06:49:34;7.82;;;3.33;;
44169;SDS011;29836;52.286;9.576;2023-08-08T06:51:59;7.80;;;3.63;;
44169;SDS011;29836;52.286;9.576;2023-08-08T06:54:25;6.00;;;3.30;;
44169;SDS011;29836;52.286;9.576;2023-08-08T06:56:53;11.85;;;3.65;;
44169;SDS011;29836;52.286;9.576;2023-08-08T06:59:19;5.25;;;3.08;;
44169;SDS011;29836;52.286;9.576;2023-08-08T07:01:45;6.47;;;3.40;;
44169;SDS011;29836;52.286;9.576;2023-08-08T07:04:10;5.85;;;3.10;;
44169;SDS011;29836;52.286;9.576;2023-08-08T07:06:36;4.90;;;2.85;;
44169;SDS011;29836;52.286;9.576;2023-08-08T07:09:01;4.72;;;2.80;;
44169;SDS011;29836;52.286;9.576;2023-08-08T07:11:27;5.80;;;3.20;;
44169;SDS011;29836;52.286;9.576;2023-08-08T07:13:53;5.95;;;2.92;;
44169;SDS011;29836;52.286;9.576;2023-08-08T07:16:18;6.38;;;3.08;;
44169;SDS011;29836;52.286;9.576;2023-08-08T07:18:44;5.35;;;2.55;;
44169;SDS011;29836;52.286;9.576;2023-08-08T07:21:09;5.85;;;2.42;;
44169;SDS011;29836;52.286;9.576;2023-08-08T07:23:35;3.78;;;2.40;;
44169;SDS011;29836;52.286;9.576;2023-08-08T07:26:00;5.47;;;2.90;;
44169;SDS011;29836;52.286;9.576;2023-08-08T07:28:26;7.55;;;2.80;;
44169;SDS011;29836;52.286;9.576;2023-08-08T07:30:51;5.75;;;2.30;;
44169;SDS011;29836;52.286;9.576;2023-08-08T07:33:17;6.78;;;2.90;;
44169;SDS011;29836;52.286;9.576;2023-08-08T07:35:43;3.78;;;1.95;;
44169;SDS011;29836;52.286;9.576;2023-08-08T07:38:08;8.38;;;2.10;;
44169;SDS011;29836;52.286;9.576;2023-08-08T07:40:34;4.55;;;2.00;;
44169;SDS011;29836;52.286;9.576;2023-08-08T07:43:00;6.53;;;2.20;;
44169;SDS011;29836;52.286;9.576;2023-08-08T07:45:26;5.25;;;2.13;;
44169;SDS011;29836;52.286;9.576;2023-08-08T07:47:51;4.28;;;1.95;;
44169;SDS011;29836;52.286;9.576;2023-08-08T07:50:17;8.35;;;2.20;;
44169;SDS011;29836;52.286;9.576;2023-08-08T07:52:43;5.45;;;1.83;;
44169;SDS011;29836;52.286;9.576;2023-08-08T07:55:09;3.72;;;1.75;;
44169;SDS011;29836;52.286;9.576;2023-08-08T07:57:34;5.13;;;1.80;;
44169;SDS011;29836;52.286;9.576;2023-08-08T08:00:00;5.50;;;1.50;;
44169;SDS011;29836;52.286;9.576;2023-08-08T08:02:32;4.97;;;1.50;;
44169;SDS011;29836;52.286;9.576;2023-08-08T08:04:58;3.83;;;1.73;;
44169;SDS011;29836;52.286;9.576;2023-08-08T08:07:23;3.30;;;1.67;;
44169;SDS011;29836;52.286;9.576;2023-08-08T08:09:49;4.22;;;1.70;;
44169;SDS011;29836;52.286;9.576;2023-08-08T08:12:14;5.25;;;1.50;;
44169;SDS011;29836;52.286;9.576;2023-08-08T08:14:40;4.53;;;1.70;;
44169;SDS011;29836;52.286;9.576;2023-08-08T08:17:06;2.55;;;1.27;;
44169;SDS011;29836;52.286;9.576;2023-08-08T08:19:31;2.22;;;1.30;;
44169;SDS011;29836;52.286;9.576;2023-08-08T08:21:57;2.80;;;1.55;;
44169;SDS011;29836;52.286;9.576;2023-08-08T08:24:22;4.90;;;1.50;;
44169;SDS011;29836;52.286;9.576;2023-08-08T08:26:48;4.35;;;1.45;;
44169;SDS011;29836;52.286;9.576;2023-08-08T08:29:14;3.83;;;1.40;;
44169;SDS011;29836;52.286;9.576;2023-08-08T08:31:39;3.30;;;1.10;;
44169;SDS011;29836;52.286;9.576;2023-08-08T08:34:05;2.83;;;1.30;;
44169;SDS011;29836;52.286;9.576;2023-08-08T08:36:30;3.83;;;1.20;;
44169;SDS011;29836;52.286;9.576;2023-08-08T08:38:56;4.68;;;1.30;;
44169;SDS011;29836;52.286;9.576;2023-08-08T08:41:23;7.07;;;1.63;;
44169;SDS011;29836;52.286;9.576;2023-08-08T08:43:53;3.67;;;1.90;;
44169;SDS011;29836;52.286;9.576;2023-08-08T08:46:20;4.25;;;1.67;;
44169;SDS011;29836;52.286;9.576;2023-08-08T08:48:47;5.50;;;2.05;;
44169;SDS011;29836;52.286;9.576;2023-08-08T08:51:14;6.25;;;2.33;;
44169;SDS011;29836;52.286;9.576;2023-08-08T08:53:41;5.55;;;2.35;;
44169;SDS011;29836;52.286;9.576;2023-08-08T08:56:08;5.45;;;2.38;;
44169;SDS011;29836;52.286;9.576;2023-08-08T08:58:34;4.13;;;2.42;;
44169;SDS011;29836;52.286;9.576;2023-08-08T09:00:59;6.88;;;2.58;;
44169;SDS011;29836;52.286;9.576;2023-08-08T09:03:25;4.90;;;2.58;;
44169;SDS011;29836;52.286;9.576;2023-08-08T09:05:51;7.57;;;2.92;;
44169;SDS011;29836;52.286;9.576;2023-08-08T09:08:19;6.85;;;3.15;;
44169;SDS011;29836;52.286;9.576;2023-08-08T09:10:45;5.57;;;2.85;;
44169;SDS011;29836;52.286;9.576;2023-08-08T09:13:10;7.32;;;3.15;;
44169;SDS011;29836;52.286;9.576;2023-08-08T09:15:36;6.65;;;2.92;;
44169;SDS011;29836;52.286;9.576;2023-08-08T09:18:02;4.20;;;2.35;;
44169;SDS011;29836;52.286;9.576;2023-08-08T09:20:27;5.68;;;2.30;;
44169;SDS011;29836;52.286;9.576;2023-08-08T09:22:54;6.38;;;1.98;;
44169;SDS011;29836;52.286;9.576;2023-08-08T09:25:19;4.03;;;2.10;;
44169;SDS011;29836;52.286;9.576;2023-08-08T09:27:45;4.07;;;2.10;;
44169;SDS011;29836;52.286;9.576;2023-08-08T09:30:11;4.85;;;1.90;;
44169;SDS011;29836;52.286;9.576;2023-08-08T09:32:37;4.82;;;2.08;;
44169;SDS011;29836;52.286;9.576;2023-08-08T09:35:03;5.40;;;1.73;;
44169;SDS011;29836;52.286;9.576;2023-08-08T09:37:34;3.92;;;1.50;;
44169;SDS011;29836;52.286;9.576;2023-08-08T09:40:00;2.92;;;1.77;;
44169;SDS011;29836;52.286;9.576;2023-08-08T09:42:29;5.22;;;1.98;;
44169;SDS011;29836;52.286;9.576;2023-08-08T09:44:57;5.18;;;2.30;;
44169;SDS011;29836;52.286;9.576;2023-08-08T09:47:24;4.70;;;2.08;;
44169;SDS011;29836;52.286;9.576;2023-08-08T09:49:50;3.85;;;2.10;;
44169;SDS011;29836;52.286;9.576;2023-08-08T09:52:16;3.90;;;2.33;;
44169;SDS011;29836;52.286;9.576;2023-08-08T09:54:43;3.20;;;2.10;;
44169;SDS011;29836;52.286;9.576;2023-08-08T09:57:09;4.80;;;2.30;;
44169;SDS011;29836;52.286;9.576;2023-08-08T09:59:35;5.80;;;2.42;;
44169;SDS011;29836;52.286;9.576;2023-08-08T10:02:02;4.40;;;2.30;;
44169;SDS011;29836;52.286;9.576;2023-08-08T10:04:29;3.83;;;1.88;;
44169;SDS011;29836;52.286;9.576;2023-08-08T10:06:55;4.40;;;1.85;;
44169;SDS011;29836;52.286;9.576;2023-08-08T10:09:21;3.72;;;1.88;;
44169;SDS011;29836;52.286;9.576;2023-08-08T10:11:46;3.83;;;1.92;;
44169;SDS011;29836;52.286;9.576;2023-08-08T10:14:13;4.80;;;2.40;;
44169;SDS011;29836;52.286;9.576;2023-08-08T10:16:42;6.45;;;2.45;;
44169;SDS011;29836;52.286;9.576;2023-08-08T10:19:11;5.80;;;2.22;;
44169;SDS011;29836;52.286;9.576;2023-08-08T10:21:37;5.03;;;2.20;;
44169;SDS011;29836;52.286;9.576;2023-08-08T10:24:10;3.58;;;1.83;;
44169;SDS011;29836;52.286;9.576;2023-08-08T10:26:56;4.95;;;1.98;;
44169;SDS011;29836;52.286;9.576;2023-08-08T10:29:25;4.97;;;1.95;;
44169;SDS011;29836;52.286;9.576;2023-08-08T10:34:36;6.55;;;1.90;;
44169;SDS011;29836;52.286;9.576;2023-08-08T10:37:24;5.85;;;1.67;;
44169;SDS011;29836;52.286;9.576;2023-08-08T10:42:25;4.97;;;1.67;;
44169;SDS011;29836;52.286;9.576;2023-08-08T10:44:53;4.75;;;1.70;;
44169;SDS011;29836;52.286;9.576;2023-08-08T10:52:28;3.60;;;1.77;;
44169;SDS011;29836;52.286;9.576;2023-08-08T10:54:54;3.95;;;2.03;;
44169;SDS011;29836;52.286;9.576;2023-08-08T10:57:20;4.88;;;2.05;;
44169;SDS011;29836;52.286;9.576;2023-08-08T10:59:50;4.75;;;1.92;;
44169;SDS011;29836;52.286;9.576;2023-08-08T11:02:16;4.07;;;2.10;;
44169;SDS011;29836;52.286;9.576;2023-08-08T11:04:43;5.20;;;2.17;;
44169;SDS011;29836;52.286;9.576;2023-08-08T11:07:09;3.35;;;1.90;;
44169;SDS011;29836;52.286;9.576;2023-08-08T11:09:35;4.25;;;1.90;;
44169;SDS011;29836;52.286;9.576;2023-08-08T11:12:01;3.22;;;1.75;;
44169;SDS011;29836;52.286;9.576;2023-08-08T11:14:26;4.03;;;1.42;;
44169;SDS011;29836;52.286;9.576;2023-08-08T11:16:52;3.28;;;1.20;;
44169;SDS011;29836;52.286;9.576;2023-08-08T11:19:18;2.95;;;1.40;;
44169;SDS011;29836;52.286;9.576;2023-08-08T11:21:48;3.15;;;1.30;;
44169;SDS011;29836;52.286;9.576;2023-08-08T11:24:14;2.33;;;1.30;;
44169;SDS011;29836;52.286;9.576;2023-08-08T11:26:40;2.78;;;1.38;;
44169;SDS011;29836;52.286;9.576;2023-08-08T11:29:09;4.28;;;1.48;;
44169;SDS011;29836;52.286;9.576;2023-08-08T11:31:34;4.53;;;1.33;;
44169;SDS011;29836;52.286;9.576;2023-08-08T11:34:00;3.30;;;1.33;;
44169;SDS011;29836;52.286;9.576;2023-08-08T11:36:30;4.85;;;1.40;;
44169;SDS011;29836;52.286;9.576;2023-08-08T11:39:00;3.08;;;1.20;;
44169;SDS011;29836;52.286;9.576;2023-08-08T11:41:33;2.53;;;1.35;;
44169;SDS011;29836;52.286;9.576;2023-08-08T11:44:01;4.82;;;1.40;;
44169;SDS011;29836;52.286;9.576;2023-08-08T11:46:28;2.58;;;1.20;;
44169;SDS011;29836;52.286;9.576;2023-08-08T11:49:01;4.75;;;1.58;;
44169;SDS011;29836;52.286;9.576;2023-08-08T11:51:31;3.17;;;1.20;;
44169;SDS011;29836;52.286;9.576;2023-08-08T11:53:59;3.50;;;1.25;;
44169;SDS011;29836;52.286;9.576;2023-08-08T11:56:26;5.07;;;1.58;;
44169;SDS011;29836;52.286;9.576;2023-08-08T11:58:51;2.85;;;1.20;;
44169;SDS011;29836;52.286;9.576;2023-08-08T12:01:24;4.00;;;1.33;;
44169;SDS011;29836;52.286;9.576;2023-08-08T12:03:51;2.60;;;1.35;;
44169;SDS011;29836;52.286;9.576;2023-08-08T12:06:17;2.15;;;0.98;;
44169;SDS011;29836;52.286;9.576;2023-08-08T12:08:44;4.10;;;1.35;;
44169;SDS011;29836;52.286;9.576;2023-08-08T12:11:11;3.88;;;1.13;;
44169;SDS011;29836;52.286;9.576;2023-08-08T12:13:38;3.65;;;1.23;;
44169;SDS011;29836;52.286;9.576;2023-08-08T12:16:08;5.18;;;1.30;;
44169;SDS011;29836;52.286;9.576;2023-08-08T12:18:36;5.15;;;1.27;;
44169;SDS011;29836;52.286;9.576;2023-08-08T12:21:03;3.38;;;1.10;;
44169;SDS011;29836;52.286;9.576;2023-08-08T12:23:35;2.95;;;1.25;;
44169;SDS011;29836;52.286;9.576;2023-08-08T12:26:05;5.07;;;1.35;;
44169;SDS011;29836;52.286;9.576;2023-08-08T12:28:31;3.33;;;1.40;;
44169;SDS011;29836;52.286;9.576;2023-08-08T12:30:57;3.17;;;1.15;;
44169;SDS011;29836;52.286;9.576;2023-08-08T12:33:22;3.67;;;1.40;;
44169;SDS011;29836;52.286;9.576;2023-08-08T12:35:48;2.33;;;1.20;;
44169;SDS011;29836;52.286;9.576;2023-08-08T12:38:14;4.20;;;1.38;;
44169;SDS011;29836;52.286;9.576;2023-08-08T12:40:40;3.58;;;1.10;;
44169;SDS011;29836;52.286;9.576;2023-08-08T12:43:05;1.92;;;0.95;;
44169;SDS011;29836;52.286;9.576;2023-08-08T12:45:31;5.63;;;1.30;;
44169;SDS011;29836;52.286;9.576;2023-08-08T12:47:56;2.47;;;1.00;;
44169;SDS011;29836;52.286;9.576;2023-08-08T12:50:22;2.15;;;1.10;;
44169;SDS011;29836;52.286;9.576;2023-08-08T12:52:48;4.32;;;1.27;;
44169;SDS011;29836;52.286;9.576;2023-08-08T12:55:14;2.33;;;1.27;;
44169;SDS011;29836;52.286;9.576;2023-08-08T12:57:42;5.95;;;1.40;;
44169;SDS011;29836;52.286;9.576;2023-08-08T13:00:08;2.92;;;0.80;;
44169;SDS011;29836;52.286;9.576;2023-08-08T13:02:35;2.63;;;0.82;;
44169;SDS011;29836;52.286;9.576;2023-08-08T13:05:00;2.25;;;0.80;;
44169;SDS011;29836;52.286;9.576;2023-08-08T13:07:28;1.58;;;0.77;;
44169;SDS011;29836;52.286;9.576;2023-08-08T13:09:54;1.10;;;0.70;;
44169;SDS011;29836;52.286;9.576;2023-08-08T13:12:19;1.67;;;0.70;;
44169;SDS011;29836;52.286;9.576;2023-08-08T13:14:46;2.28;;;0.70;;
44169;SDS011;29836;52.286;9.576;2023-08-08T13:17:11;1.13;;;0.63;;
44169;SDS011;29836;52.286;9.576;2023-08-08T13:19:37;2.60;;;0.80;;
44169;SDS011;29836;52.286;9.576;2023-08-08T13:22:03;3.13;;;0.80;;
44169;SDS011;29836;52.286;9.576;2023-08-08T13:24:28;1.75;;;0.90;;
44169;SDS011;29836;52.286;9.576;2023-08-08T13:26:54;1.65;;;0.77;;
44169;SDS011;29836;52.286;9.576;2023-08-08T13:29:19;2.63;;;0.70;;
44169;SDS011;29836;52.286;9.576;2023-08-08T13:31:45;4.47;;;0.90;;
44169;SDS011;29836;52.286;9.576;2023-08-08T13:34:10;1.45;;;0.80;;
44169;SDS011;29836;52.286;9.576;2023-08-08T13:36:36;2.70;;;0.90;;
44169;SDS011;29836;52.286;9.576;2023-08-08T13:39:02;3.15;;;0.93;;
44169;SDS011;29836;52.286;9.576;2023-08-08T13:41:29;2.47;;;0.80;;
44169;SDS011;29836;52.286;9.576;2023-08-08T13:43:55;1.80;;;0.88;;
44169;SDS011;29836;52.286;9.576;2023-08-08T13:46:21;1.75;;;0.85;;
44169;SDS011;29836;52.286;9.576;2023-08-08T13:48:46;3.60;;;0.80;;
44169;SDS011;29836;52.286;9.576;2023-08-08T13:51:12;2.05;;;0.85;;
44169;SDS011;29836;52.286;9.576;2023-08-08T13:53:38;2.25;;;0.88;;
44169;SDS011;29836;52.286;9.576;2023-08-08T13:56:03;3.33;;;0.88;;
44169;SDS011;29836;52.286;9.576;2023-08-08T13:58:29;1.63;;;0.90;;
44169;SDS011;29836;52.286;9.576;2023-08-08T14:00:55;1.73;;;0.90;;
44169;SDS011;29836;52.286;9.576;2023-08-08T14:03:22;1.55;;;0.80;;
44169;SDS011;29836;52.286;9.576;2023-08-08T14:05:49;1.48;;;0.82;;
44169;SDS011;29836;52.286;9.576;2023-08-08T14:08:17;3.85;;;0.90;;
44169;SDS011;29836;52.286;9.576;2023-08-08T14:10:43;2.17;;;1.10;;
44169;SDS011;29836;52.286;9.576;2023-08-08T14:13:09;2.38;;;0.90;;
44169;SDS011;29836;52.286;9.576;2023-08-08T14:15:36;1.52;;;0.82;;
44169;SDS011;29836;52.286;9.576;2023-08-08T14:18:02;2.10;;;0.90;;
44169;SDS011;29836;52.286;9.576;2023-08-08T14:20:28;2.33;;;0.70;;
44169;SDS011;29836;52.286;9.576;2023-08-08T14:22:53;1.95;;;0.70;;
44169;SDS011;29836;52.286;9.576;2023-08-08T14:25:19;2.10;;;0.65;;
44169;SDS011;29836;52.286;9.576;2023-08-08T14:27:45;1.75;;;0.77;;
44169;SDS011;29836;52.286;9.576;2023-08-08T14:30:11;3.30;;;0.90;;
44169;SDS011;29836;52.286;9.576;2023-08-08T14:32:36;2.78;;;0.90;;
44169;SDS011;29836;52.286;9.576;2023-08-08T14:35:02;1.75;;;0.60;;
44169;SDS011;29836;52.286;9.576;2023-08-08T14:37:29;2.35;;;0.70;;
44169;SDS011;29836;52.286;9.576;2023-08-08T14:39:56;2.35;;;0.75;;
44169;SDS011;29836;52.286;9.576;2023-08-08T14:42:21;2.13;;;0.80;;
44169;SDS011;29836;52.286;9.576;2023-08-08T14:44:47;4.43;;;0.70;;
44169;SDS011;29836;52.286;9.576;2023-08-08T14:47:12;3.03;;;0.80;;
44169;SDS011;29836;52.286;9.576;2023-08-08T14:49:38;1.92;;;0.77;;
44169;SDS011;29836;52.286;9.576;2023-08-08T14:52:04;2.05;;;0.75;;
44169;SDS011;29836;52.286;9.576;2023-08-08T14:54:30;1.05;;;0.65;;
44169;SDS011;29836;52.286;9.576;2023-08-08T14:56:55;1.00;;;0.63;;
44169;SDS011;29836;52.286;9.576;2023-08-08T14:59:21;1.80;;;0.88;;
44169;SDS011;29836;52.286;9.576;2023-08-08T15:01:47;3.75;;;0.90;;